Lynchburg, Virginia
Current Conditions -  °F | °C
As of 1:54 AM on Wednesday 22 Oct 2014 (Local Time) from KLYH Reporting Station
Overcast Overcast  
Wind Chill:   Ceiling: 8500
Heat Index:   Visibility: 10mi
Dew Point:   Wind: 3mph
Humidity: 97%   Direction: 280°W
Pressure: 29.95"   Gusts: NA
Location:  37.4°N, 79.15°W
Report Text: KLYH 220554Z AUTO 28003KT 10SM FEW050 SCT070 OVC085 08/08 A2995 RMK AO2 RAE47 SLP140 P0003 60003 T00830078 10122 20083 58001
Loading
Personal Weather Stations






























Interactive Weather Map
Tropical Storm Tracking
New forecast layout! Learn more

10-Day Weather Forecast

Advertisements
Track Severe Weather on mobile